Weather at Aviosuperficie F. Baracca

Public forecast

Using degrees Celsius for public forecast. Weather courtesy of forecast.io.

Closest aviation weather report (METAR) to Aviosuperficie F. Baracca

Closest report is Istrana Air Base, 10.3 nm (19.1 km) SSW.

2024/05/29 11:55 (retrieved 1 hour ago)

LIPS 291155Z 34003KT 9999 FEW025 24/12 Q1014 RMK BKN SCT120 BKN200 VIS MIN 9999 WIND THR26 /////KT WIND THR08 12002KT BLU

Closest aviation forecast (TAF) to Aviosuperficie F. Baracca

Closest forecast is Treviso Antonio Canova Airport, 11.4 nm (21.2 km) S.

2024/05/29 12:00 (retrieved 1 hour ago)

TAF LIPH 291100Z 2912/3012 VRB05KT 9999 FEW030 TEMPO 3007/3012 TSRA